Time;durP1;ratioP1;P1;durP2;ratioP2;P2;SDS_P1;SDS_P2;PMS_P1;PMS_P2;Temp;Humidity;BMP_temperature;BMP_pressure;BME280_temperature;BME280_humidity;BME280_pressure;Samples;Min_cycle;Max_cycle;Signal;HPM_P1;HPM_P2
2022/03/04 00:02:07;;;;;;;25.42;12.70;;;1.80;99.90;;;;;;5067540;28;20055;-71
2022/03/04 00:04:37;;;;;;;24.83;12.77;;;1.70;99.90;;;;;;5067490;28;20099;-71
2022/03/04 00:07:03;;;;;;;20.73;11.60;;;1.70;99.90;;;;;;5050145;28;20491;-70
2022/03/04 00:09:30;;;;;;;23.52;12.18;;;1.70;99.90;;;;;;5099432;28;20037;-71
2022/03/04 00:11:56;;;;;;;21.13;12.05;;;1.70;99.90;;;;;;5100912;28;20053;-70
2022/03/04 00:14:22;;;;;;;21.65;11.65;;;1.70;99.90;;;;;;5069643;28;20090;-72
2022/03/04 00:16:47;;;;;;;22.55;11.25;;;1.70;99.90;;;;;;5084960;28;20025;-73
2022/03/04 00:19:13;;;;;;;23.15;12.27;;;1.60;99.90;;;;;;5085586;28;20037;-71
2022/03/04 00:21:46;;;;;;;24.05;12.27;;;1.60;99.90;;;;;;5086082;28;20036;-72
2022/03/04 00:24:12;;;;;;;21.42;11.48;;;1.60;99.90;;;;;;5085160;28;20044;-70
2022/03/04 00:26:39;;;;;;;26.98;11.77;;;1.50;99.90;;;;;;5068539;28;20092;-71
2022/03/04 00:29:05;;;;;;;23.13;11.48;;;1.50;99.90;;;;;;5085254;28;20040;-71
2022/03/04 00:31:32;;;;;;;22.65;11.85;;;1.40;99.90;;;;;;5085600;28;20497;-71
2022/03/04 00:33:58;;;;;;;23.23;12.02;;;1.40;99.90;;;;;;5085511;28;20217;-70
2022/03/04 00:36:24;;;;;;;22.08;11.57;;;1.40;99.90;;;;;;5085274;28;20040;-70
2022/03/04 00:38:51;;;;;;;22.30;11.90;;;1.40;99.90;;;;;;5084474;28;20047;-71
2022/03/04 00:41:21;;;;;;;22.67;12.13;;;1.40;99.90;;;;;;5085358;28;20092;-71
2022/03/04 00:43:47;;;;;;;23.25;12.25;;;1.30;99.90;;;;;;5084958;28;20099;-71
2022/03/04 00:46:14;;;;;;;23.77;11.93;;;1.40;99.90;;;;;;5069056;28;20049;-72
2022/03/04 00:48:40;;;;;;;24.08;12.50;;;1.30;99.90;;;;;;5064580;28;20051;-71
2022/03/04 00:51:07;;;;;;;24.95;12.90;;;1.30;99.90;;;;;;5048560;28;20056;-73
2022/03/04 00:53:32;;;;;;;25.00;13.18;;;1.30;99.90;;;;;;5097988;28;20065;-71
2022/03/04 00:56:00;;;;;;;24.02;12.57;;;1.30;99.90;;;;;;5064472;28;20048;-71
2022/03/04 00:58:25;;;;;;;24.88;11.82;;;1.30;99.90;;;;;;5097592;28;20049;-72
2022/03/04 01:00:51;;;;;;;23.48;12.35;;;1.20;99.90;;;;;;5081572;28;20041;-72
2022/03/04 01:03:17;;;;;;;25.38;13.10;;;1.20;99.90;;;;;;5098172;28;20079;-71
2022/03/04 01:05:43;;;;;;;26.13;12.15;;;1.20;99.90;;;;;;5080963;28;20036;-70
2022/03/04 01:08:09;;;;;;;26.90;13.00;;;1.20;99.90;;;;;;5065197;28;20098;-71
2022/03/04 01:10:35;;;;;;;24.75;12.68;;;1.10;99.90;;;;;;5047574;28;20064;-70
2022/03/04 01:13:01;;;;;;;26.50;13.07;;;1.10;99.90;;;;;;5061824;28;20044;-70
2022/03/04 01:15:27;;;;;;;26.58;13.00;;;1.10;99.90;;;;;;5075213;28;20059;-71
2022/03/04 01:17:53;;;;;;;24.98;12.27;;;1.10;99.90;;;;;;5098069;28;20091;-70
2022/03/04 01:20:19;;;;;;;24.23;13.05;;;1.00;99.90;;;;;;5063894;28;20045;-73
2022/03/04 01:22:45;;;;;;;25.30;12.68;;;1.00;99.90;;;;;;5088502;28;20037;-71
2022/03/04 01:25:11;;;;;;;22.15;12.63;;;1.00;99.90;;;;;;5077266;28;20065;-71
2022/03/04 01:27:37;;;;;;;26.70;13.18;;;1.00;99.90;;;;;;5060366;28;20072;-71
2022/03/04 01:30:07;;;;;;;24.05;13.25;;;1.00;99.90;;;;;;5060792;28;20038;-72
2022/03/04 01:32:33;;;;;;;23.60;13.05;;;1.00;99.90;;;;;;5027434;28;20049;-71
2022/03/04 01:34:59;;;;;;;30.33;14.52;;;0.90;99.90;;;;;;5077136;28;20033;-70
2022/03/04 01:37:25;;;;;;;26.00;13.63;;;0.90;99.90;;;;;;5077525;28;20084;-69
2022/03/04 01:39:51;;;;;;;25.73;13.88;;;0.90;99.90;;;;;;5076889;28;20357;-71
2022/03/04 01:42:17;;;;;;;24.35;13.05;;;0.90;99.90;;;;;;5076828;28;20076;-71
2022/03/04 01:44:43;;;;;;;28.30;13.82;;;0.90;99.90;;;;;;5028390;28;20045;-71
2022/03/04 01:47:09;;;;;;;25.23;13.32;;;0.80;99.90;;;;;;5076963;28;20091;-72
2022/03/04 01:49:35;;;;;;;27.65;13.38;;;0.80;99.90;;;;;;5027006;28;20048;-70
2022/03/04 01:52:02;;;;;;;30.67;13.63;;;0.80;99.90;;;;;;5043283;28;20042;-73
2022/03/04 01:54:27;;;;;;;27.58;13.38;;;0.80;99.90;;;;;;5043253;28;20041;-71
2022/03/04 01:56:53;;;;;;;31.67;14.38;;;0.70;99.90;;;;;;5076622;28;20045;-71
2022/03/04 01:59:19;;;;;;;28.42;13.95;;;0.70;99.90;;;;;;5043293;28;20049;-73
2022/03/04 02:01:45;;;;;;;25.67;13.05;;;0.60;99.90;;;;;;5043372;28;20109;-72
2022/03/04 02:04:11;;;;;;;26.52;13.73;;;0.70;99.90;;;;;;5045131;28;20169;-71
2022/03/04 02:06:37;;;;;;;27.60;14.35;;;0.60;99.90;;;;;;5063562;28;20037;-74
2022/03/04 02:09:03;;;;;;;30.17;14.55;;;0.60;99.90;;;;;;5061032;28;20044;-70
2022/03/04 02:11:29;;;;;;;28.73;14.07;;;0.60;99.90;;;;;;5086633;28;20048;-71
2022/03/04 02:13:55;;;;;;;31.35;16.15;;;0.50;99.90;;;;;;5086701;28;20487;-70
2022/03/04 02:16:44;;;;;;;32.72;15.60;;;0.50;99.90;;;;;;5083190;28;20044;-71
2022/03/04 02:19:10;;;;;;;30.80;15.87;;;0.40;99.90;;;;;;5065548;28;20066;-71
2022/03/04 02:21:35;;;;;;;32.67;15.48;;;0.40;99.90;;;;;;5082403;28;20618;-71
2022/03/04 02:24:02;;;;;;;34.17;16.25;;;0.40;99.90;;;;;;5065982;28;20044;-71
2022/03/04 02:26:28;;;;;;;29.13;14.95;;;0.40;99.90;;;;;;5099504;28;20040;-70
2022/03/04 02:28:54;;;;;;;34.08;15.73;;;0.40;99.90;;;;;;5065999;28;20047;-72
2022/03/04 02:31:21;;;;;;;34.45;15.43;;;0.40;99.90;;;;;;5065267;28;20047;-71
2022/03/04 02:33:49;;;;;;;33.40;16.63;;;0.30;99.90;;;;;;5064916;28;20088;-71
2022/03/04 02:36:15;;;;;;;33.72;16.92;;;0.30;99.90;;;;;;5065410;28;20048;-71
2022/03/04 02:38:41;;;;;;;36.67;16.38;;;0.20;99.90;;;;;;5046760;28;20120;-70
2022/03/04 02:41:07;;;;;;;32.22;15.90;;;0.20;99.90;;;;;;5080715;28;20037;-70
2022/03/04 02:43:34;;;;;;;34.05;16.35;;;0.20;99.90;;;;;;5097085;28;20044;-70
2022/03/04 02:46:00;;;;;;;32.13;16.20;;;0.20;99.90;;;;;;5074830;28;20043;-71
2022/03/04 02:48:26;;;;;;;33.25;16.70;;;0.20;99.90;;;;;;5085051;28;20044;-70
2022/03/04 02:50:51;;;;;;;38.53;16.58;;;0.20;99.90;;;;;;5084858;28;20062;-72
2022/03/04 02:53:17;;;;;;;38.40;17.70;;;0.20;99.90;;;;;;5068729;28;20494;-70
2022/03/04 02:55:43;;;;;;;39.45;17.40;;;0.20;99.90;;;;;;5068135;28;20129;-71
2022/03/04 02:58:08;;;;;;;39.22;18.88;;;0.10;99.90;;;;;;5084400;28;20123;-70
2022/03/04 03:00:34;;;;;;;35.65;16.88;;;0.10;99.90;;;;;;5084660;28;20058;-70
2022/03/04 03:03:00;;;;;;;34.58;16.92;;;0.10;99.90;;;;;;5066321;28;20040;-72
2022/03/04 03:05:26;;;;;;;37.03;17.55;;;0.00;99.90;;;;;;5061352;28;20475;-71
2022/03/04 03:07:51;;;;;;;35.25;17.58;;;0.10;99.90;;;;;;5098125;28;20083;-70
2022/03/04 03:10:17;;;;;;;39.17;17.52;;;0.00;99.90;;;;;;5064008;28;20045;-72
2022/03/04 03:12:43;;;;;;;35.88;17.20;;;0.00;99.90;;;;;;5081384;28;20491;-71
2022/03/04 03:15:11;;;;;;;35.72;17.58;;;-0.10;99.90;;;;;;5067076;28;20037;-73
2022/03/04 03:17:37;;;;;;;37.53;17.88;;;-0.10;99.90;;;;;;5084573;28;20041;-70
2022/03/04 03:20:07;;;;;;;34.38;18.02;;;0.00;99.90;;;;;;5084013;28;20036;-70
2022/03/04 03:22:33;;;;;;;36.90;18.20;;;0.00;99.90;;;;;;5085087;28;20048;-71
2022/03/04 03:24:59;;;;;;;42.88;19.20;;;-0.10;99.90;;;;;;5084560;28;20139;-70
2022/03/04 03:27:25;;;;;;;36.13;17.98;;;-0.10;99.90;;;;;;5084902;28;20036;-71
2022/03/04 03:29:51;;;;;;;42.63;19.80;;;-0.10;99.90;;;;;;5068768;28;20094;-71
2022/03/04 03:32:16;;;;;;;34.70;17.80;;;-0.10;99.90;;;;;;5068339;28;20043;-73
2022/03/04 03:34:42;;;;;;;36.58;18.45;;;-0.10;99.90;;;;;;5083803;28;20086;-71
2022/03/04 03:37:09;;;;;;;37.95;19.35;;;-0.10;99.90;;;;;;5084335;28;20086;-71
2022/03/04 03:39:36;;;;;;;36.35;18.15;;;-0.10;99.90;;;;;;5084024;28;20047;-71
2022/03/04 03:42:02;;;;;;;43.25;21.08;;;-0.20;99.90;;;;;;5067085;28;20183;-72
2022/03/04 03:44:27;;;;;;;39.72;19.75;;;-0.30;99.90;;;;;;5083977;28;20032;-72
2022/03/04 03:46:53;;;;;;;37.95;19.52;;;-0.30;99.90;;;;;;5083635;28;20062;-73
2022/03/04 03:49:19;;;;;;;38.35;20.15;;;-0.30;99.90;;;;;;5084342;28;20044;-72
2022/03/04 03:51:44;;;;;;;40.60;19.45;;;-0.30;99.90;;;;;;5083144;28;20105;-70
2022/03/04 03:54:10;;;;;;;41.50;20.38;;;-0.30;99.90;;;;;;5067403;28;20055;-70
2022/03/04 03:56:36;;;;;;;38.10;19.98;;;-0.30;99.90;;;;;;5070299;28;20097;-71
2022/03/04 03:59:02;;;;;;;38.60;20.10;;;-0.30;99.90;;;;;;5097520;28;20055;-71
2022/03/04 04:01:28;;;;;;;39.78;20.80;;;-0.30;99.90;;;;;;5062971;28;20055;-70
2022/03/04 04:03:54;;;;;;;37.63;19.60;;;-0.30;99.90;;;;;;5063987;28;20096;-71
2022/03/04 04:06:19;;;;;;;40.25;19.98;;;-0.30;99.90;;;;;;5062940;28;20084;-70
2022/03/04 04:08:47;;;;;;;40.85;21.05;;;-0.30;99.90;;;;;;5064107;28;20044;-70
2022/03/04 04:11:13;;;;;;;39.70;20.90;;;-0.40;99.90;;;;;;5063252;28;20049;-70
2022/03/04 04:13:41;;;;;;;39.35;20.50;;;-0.40;99.90;;;;;;5097342;28;20159;-70
2022/03/04 04:16:07;;;;;;;45.08;22.17;;;-0.40;99.90;;;;;;5063482;28;20057;-70
2022/03/04 04:18:33;;;;;;;40.33;21.08;;;-0.40;99.90;;;;;;5063087;28;20083;-70
2022/03/04 04:20:58;;;;;;;41.58;20.50;;;-0.40;99.90;;;;;;5062609;28;20065;-71
2022/03/04 04:23:24;;;;;;;43.78;22.38;;;-0.40;99.90;;;;;;5045883;28;20075;-70
2022/03/04 04:25:50;;;;;;;44.15;21.52;;;-0.40;99.90;;;;;;5080309;28;20041;-70
2022/03/04 04:28:15;;;;;;;39.65;20.85;;;-0.40;99.90;;;;;;5095895;28;20045;-71
2022/03/04 04:30:41;;;;;;;40.85;21.52;;;-0.40;99.90;;;;;;5075013;28;20170;-70
2022/03/04 04:33:07;;;;;;;41.25;21.45;;;-0.40;99.90;;;;;;5083269;28;20080;-73
2022/03/04 04:35:32;;;;;;;44.00;21.98;;;-0.40;99.90;;;;;;5082509;28;20036;-70
2022/03/04 04:37:58;;;;;;;41.38;20.67;;;-0.40;99.90;;;;;;5082628;28;20032;-70
2022/03/04 04:40:24;;;;;;;44.88;21.67;;;-0.40;99.90;;;;;;5082826;28;20041;-71
2022/03/04 04:42:49;;;;;;;44.95;22.00;;;-0.40;99.90;;;;;;5082817;28;20513;-70
2022/03/04 04:45:15;;;;;;;48.58;23.23;;;-0.40;99.90;;;;;;5079647;28;20114;-70
2022/03/04 04:47:41;;;;;;;47.42;22.60;;;-0.50;99.90;;;;;;5079628;28;20037;-70
2022/03/04 04:50:07;;;;;;;43.63;22.38;;;-0.50;99.90;;;;;;5045905;28;20041;-71
2022/03/04 04:52:33;;;;;;;46.28;23.27;;;-0.50;99.90;;;;;;5062774;28;20115;-71
2022/03/04 04:54:59;;;;;;;50.53;23.77;;;-0.50;99.90;;;;;;5061757;28;20069;-71
2022/03/04 04:57:25;;;;;;;49.70;22.30;;;-0.50;99.90;;;;;;5094924;28;20504;-70
2022/03/04 04:59:51;;;;;;;51.78;23.90;;;-0.50;99.90;;;;;;5062374;28;20049;-70
2022/03/04 05:02:16;;;;;;;50.78;22.65;;;-0.50;99.90;;;;;;5062024;28;20135;-73
2022/03/04 05:04:42;;;;;;;47.50;22.33;;;-0.50;99.90;;;;;;5062016;28;20041;-70
2022/03/04 05:07:08;;;;;;;49.65;23.50;;;-0.50;99.90;;;;;;5062595;28;20054;-72
2022/03/04 05:09:34;;;;;;;49.95;24.23;;;-0.50;99.90;;;;;;5062015;28;20044;-69
2022/03/04 05:12:00;;;;;;;52.45;23.75;;;-0.50;99.90;;;;;;5061931;28;20057;-70
2022/03/04 05:14:25;;;;;;;47.08;22.38;;;-0.50;99.90;;;;;;5063209;28;20037;-70
2022/03/04 05:16:51;;;;;;;48.42;23.05;;;-0.50;99.90;;;;;;5061684;28;20033;-71
2022/03/04 05:19:16;;;;;;;48.10;23.70;;;-0.50;99.90;;;;;;5062298;28;20124;-70
2022/03/04 05:21:42;;;;;;;56.70;25.02;;;-0.40;99.90;;;;;;5062416;28;20116;-70
2022/03/04 05:24:08;;;;;;;55.55;24.83;;;-0.40;99.90;;;;;;5061878;28;20065;-72
2022/03/04 05:26:39;;;;;;;46.97;23.10;;;-0.40;99.90;;;;;;5095574;28;20132;-70
2022/03/04 05:29:10;;;;;;;53.92;24.45;;;-0.40;99.90;;;;;;5062049;28;20041;-72
2022/03/04 05:31:41;;;;;;;51.72;23.45;;;-0.40;99.90;;;;;;5050449;28;20066;-70
2022/03/04 05:34:08;;;;;;;47.75;23.05;;;-0.40;99.90;;;;;;5082513;28;20051;-72
2022/03/04 05:36:35;;;;;;;47.20;22.75;;;-0.40;99.90;;;;;;5082289;28;20075;-70
2022/03/04 05:39:01;;;;;;;50.95;23.45;;;-0.40;99.90;;;;;;5081944;28;20089;-72
2022/03/04 05:41:27;;;;;;;55.20;24.92;;;-0.40;99.90;;;;;;5082571;28;20082;-73
2022/03/04 05:43:52;;;;;;;55.20;25.30;;;-0.40;99.90;;;;;;5067562;28;20119;-70
2022/03/04 05:46:18;;;;;;;54.20;25.05;;;-0.40;99.90;;;;;;5074433;28;20079;-70
2022/03/04 05:48:44;;;;;;;52.03;24.65;;;-0.40;99.90;;;;;;5066630;28;20040;-72
2022/03/04 05:51:10;;;;;;;49.55;24.83;;;-0.30;99.90;;;;;;5065734;28;20483;-71
2022/03/04 05:53:36;;;;;;;49.20;23.85;;;-0.40;99.90;;;;;;5100027;28;20128;-70
2022/03/04 05:56:04;;;;;;;54.05;24.73;;;-0.40;99.90;;;;;;5099255;28;20044;-70
2022/03/04 05:58:29;;;;;;;51.00;23.95;;;-0.40;99.90;;;;;;5099433;28;20037;-71
2022/03/04 06:00:55;;;;;;;53.60;25.77;;;-0.40;99.90;;;;;;5079873;28;20044;-72
2022/03/04 06:03:21;;;;;;;55.95;25.10;;;-0.40;99.90;;;;;;5085267;28;20040;-70
2022/03/04 06:05:47;;;;;;;55.35;24.55;;;-0.40;99.90;;;;;;5085527;28;20036;-70
2022/03/04 06:08:12;;;;;;;54.90;25.30;;;-0.40;99.90;;;;;;5086034;28;20080;-71
2022/03/04 06:10:38;;;;;;;59.78;26.55;;;-0.40;99.90;;;;;;5085191;28;20061;-70
2022/03/04 06:13:04;;;;;;;57.42;25.92;;;-0.40;99.90;;;;;;5085575;28;20048;-69
2022/03/04 06:15:30;;;;;;;54.10;25.92;;;-0.40;99.90;;;;;;5085640;28;20062;-71
2022/03/04 06:17:55;;;;;;;55.28;26.38;;;-0.40;99.90;;;;;;5084696;28;20044;-70
2022/03/04 06:20:21;;;;;;;56.67;24.90;;;-0.40;99.90;;;;;;5086800;28;20048;-71
2022/03/04 06:22:47;;;;;;;56.30;26.13;;;-0.40;99.90;;;;;;5085558;28;20044;-71
2022/03/04 06:25:14;;;;;;;58.33;26.38;;;-0.40;99.90;;;;;;5086234;28;20041;-70
2022/03/04 06:28:13;;;;;;;58.15;26.35;;;-0.40;99.90;;;;;;5065746;28;20065;-71
2022/03/04 06:30:39;;;;;;;55.92;25.95;;;-0.40;99.90;;;;;;5043177;28;20052;-70
2022/03/04 06:35:50;;;;;;;62.00;26.60;;;-0.50;99.90;;;;;;5064864;28;20139;-71
2022/03/04 06:38:17;;;;;;;62.75;27.17;;;-0.40;99.90;;;;;;5066329;28;20067;-70
2022/03/04 06:40:44;;;;;;;57.28;26.02;;;-0.40;99.90;;;;;;5065667;28;20059;-70
2022/03/04 06:43:09;;;;;;;64.97;27.85;;;-0.40;99.90;;;;;;5065831;28;20096;-71
2022/03/04 06:45:36;;;;;;;66.28;27.63;;;-0.40;99.90;;;;;;5065494;28;20049;-71
2022/03/04 06:48:02;;;;;;;63.65;27.92;;;-0.30;99.90;;;;;;5064671;28;20049;-71
2022/03/04 06:50:28;;;;;;;63.03;27.95;;;-0.40;99.90;;;;;;5049443;28;20055;-71
2022/03/04 06:52:55;;;;;;;63.45;28.20;;;-0.40;99.90;;;;;;5065449;28;20478;-70
2022/03/04 06:55:21;;;;;;;65.68;28.55;;;-0.30;99.90;;;;;;5098742;28;20051;-72
2022/03/04 06:57:50;;;;;;;65.35;26.63;;;-0.30;99.90;;;;;;5070031;28;20067;-71
2022/03/04 07:00:16;;;;;;;62.63;27.17;;;-0.40;99.90;;;;;;5084239;28;20114;-70
2022/03/04 07:02:41;;;;;;;59.38;26.60;;;-0.40;99.90;;;;;;5064486;28;20041;-70
2022/03/04 07:05:08;;;;;;;67.13;28.60;;;-0.40;99.90;;;;;;5065654;28;20131;-70
2022/03/04 07:07:34;;;;;;;59.58;28.02;;;-0.40;99.90;;;;;;5099361;28;20052;-72
2022/03/04 07:10:00;;;;;;;59.35;28.02;;;-0.30;99.90;;;;;;5066099;28;20049;-71
2022/03/04 07:12:26;;;;;;;60.95;26.33;;;-0.30;99.90;;;;;;5064991;28;20418;-71
2022/03/04 07:14:52;;;;;;;58.00;25.90;;;-0.30;99.90;;;;;;5080296;28;20041;-70
2022/03/04 07:17:18;;;;;;;63.10;26.65;;;-0.30;99.90;;;;;;5048398;28;20139;-70
2022/03/04 07:19:44;;;;;;;58.65;27.15;;;-0.30;99.90;;;;;;5098510;28;20041;-73
2022/03/04 07:22:10;;;;;;;63.08;26.80;;;-0.30;99.90;;;;;;5066066;28;20040;-71
2022/03/04 07:24:36;;;;;;;62.33;28.50;;;-0.30;99.90;;;;;;5098386;28;20053;-70
2022/03/04 07:27:02;;;;;;;55.03;26.15;;;-0.20;99.90;;;;;;5048306;28;20040;-70
2022/03/04 07:29:28;;;;;;;61.65;27.60;;;-0.20;99.90;;;;;;5081930;28;20029;-71
2022/03/04 07:31:54;;;;;;;59.70;26.98;;;-0.20;99.90;;;;;;5068911;28;20041;-71
2022/03/04 07:34:24;;;;;;;53.47;27.05;;;-0.10;99.90;;;;;;5048584;28;20361;-72
2022/03/04 07:36:51;;;;;;;59.00;26.38;;;-0.10;99.90;;;;;;5099154;28;20055;-72
2022/03/04 07:39:17;;;;;;;52.92;25.67;;;0.00;99.90;;;;;;5099135;28;20033;-72
2022/03/04 07:41:43;;;;;;;56.03;26.77;;;0.00;99.90;;;;;;5067687;28;20033;-70
2022/03/04 07:44:10;;;;;;;56.38;27.10;;;0.10;99.90;;;;;;5065270;28;20044;-70
2022/03/04 07:46:36;;;;;;;56.22;25.58;;;0.10;99.90;;;;;;5061897;28;20056;-71
2022/03/04 07:49:03;;;;;;;51.47;25.60;;;0.20;99.90;;;;;;5045489;28;20392;-72
2022/03/04 07:51:29;;;;;;;62.80;27.52;;;0.10;99.90;;;;;;5044984;28;20037;-70
2022/03/04 07:53:54;;;;;;;55.03;26.67;;;0.20;99.90;;;;;;5079073;28;20459;-69
2022/03/04 07:56:20;;;;;;;54.50;26.23;;;0.20;99.90;;;;;;5045945;28;20056;-70
2022/03/04 07:58:46;;;;;;;55.83;26.85;;;0.20;99.90;;;;;;5094081;28;20079;-70
2022/03/04 08:01:11;;;;;;;58.97;28.40;;;0.30;99.90;;;;;;5065356;28;20037;-70
2022/03/04 08:03:37;;;;;;;58.03;26.63;;;0.40;99.90;;;;;;5049404;28;20049;-70
2022/03/04 08:06:03;;;;;;;58.88;26.63;;;0.40;99.90;;;;;;5067472;28;20051;-70
2022/03/04 08:08:28;;;;;;;65.07;28.20;;;0.40;99.90;;;;;;5065812;28;20076;-70
2022/03/04 08:10:54;;;;;;;65.80;28.95;;;0.40;99.90;;;;;;5064136;28;20043;-70
2022/03/04 08:13:21;;;;;;;60.00;28.02;;;0.40;99.90;;;;;;5092788;28;20106;-72
2022/03/04 08:15:47;;;;;;;64.93;27.75;;;0.30;99.90;;;;;;5048363;28;20032;-69
2022/03/04 08:18:12;;;;;;;63.70;27.38;;;0.40;99.90;;;;;;5066675;28;20036;-71
2022/03/04 08:20:39;;;;;;;59.90;27.88;;;0.40;99.90;;;;;;5065275;28;20029;-70
2022/03/04 08:23:04;;;;;;;62.38;27.40;;;0.40;99.90;;;;;;5064936;28;20044;-70
2022/03/04 08:25:30;;;;;;;64.63;28.83;;;0.40;99.90;;;;;;5074532;28;20256;-70
2022/03/04 08:27:56;;;;;;;68.60;29.60;;;0.50;99.90;;;;;;5084221;28;20063;-70
2022/03/04 08:30:25;;;;;;;66.72;30.13;;;0.60;99.90;;;;;;5086071;28;20181;-71
2022/03/04 08:32:50;;;;;;;61.95;29.13;;;0.60;99.90;;;;;;5082421;28;20540;-70
2022/03/04 08:35:16;;;;;;;66.72;29.65;;;0.60;99.90;;;;;;5066187;28;20474;-70
2022/03/04 08:37:42;;;;;;;69.35;30.23;;;0.60;99.90;;;;;;5083410;28;20043;-71
2022/03/04 08:40:10;;;;;;;66.60;28.40;;;0.70;99.90;;;;;;5067819;28;20041;-70
2022/03/04 08:42:37;;;;;;;65.80;29.30;;;0.70;99.90;;;;;;5084751;28;20062;-71
2022/03/04 08:45:03;;;;;;;70.07;30.77;;;0.70;99.90;;;;;;5087676;28;20075;-70
2022/03/04 08:47:29;;;;;;;68.45;30.42;;;0.80;99.90;;;;;;5086499;28;20482;-70
2022/03/04 08:49:55;;;;;;;65.53;29.73;;;0.80;99.90;;;;;;5085341;28;20079;-70
2022/03/04 08:52:21;;;;;;;69.90;31.13;;;0.90;99.90;;;;;;5086257;28;20044;-69
2022/03/04 08:54:46;;;;;;;68.85;30.30;;;0.90;99.90;;;;;;5067532;28;20474;-70
2022/03/04 08:57:12;;;;;;;64.15;29.35;;;1.00;99.90;;;;;;5068538;28;20044;-71
2022/03/04 08:59:38;;;;;;;64.68;28.95;;;1.10;99.90;;;;;;5086148;28;20044;-71
2022/03/04 09:02:05;;;;;;;64.85;28.98;;;1.10;99.90;;;;;;5068701;28;20049;-70
2022/03/04 09:04:31;;;;;;;61.65;29.20;;;1.00;99.90;;;;;;5074067;28;20047;-70
2022/03/04 09:06:56;;;;;;;61.72;27.90;;;1.00;99.90;;;;;;5091074;28;20045;-70
2022/03/04 09:09:23;;;;;;;61.75;27.42;;;1.00;99.90;;;;;;5081027;28;20077;-71
2022/03/04 09:11:48;;;;;;;62.83;28.05;;;1.00;99.90;;;;;;5079250;28;20049;-71
2022/03/04 09:14:16;;;;;;;60.67;27.75;;;1.00;99.90;;;;;;5078396;28;20048;-69
2022/03/04 09:16:42;;;;;;;60.53;28.02;;;1.00;99.90;;;;;;5077404;28;20045;-71
2022/03/04 09:19:08;;;;;;;66.18;27.75;;;1.00;99.90;;;;;;5081502;28;20080;-70
2022/03/04 09:21:33;;;;;;;63.28;28.02;;;1.10;99.90;;;;;;5099773;28;20037;-71
2022/03/04 09:23:59;;;;;;;62.30;27.52;;;1.20;99.90;;;;;;5099098;28;20365;-70
2022/03/04 09:26:27;;;;;;;63.33;27.77;;;1.20;99.90;;;;;;5080217;28;20043;-70
2022/03/04 09:28:53;;;;;;;64.40;28.08;;;1.20;99.90;;;;;;5085213;28;20074;-70
2022/03/04 09:31:19;;;;;;;69.05;29.08;;;1.30;99.90;;;;;;5086378;28;20048;-70
2022/03/04 09:33:45;;;;;;;60.33;28.67;;;1.30;99.90;;;;;;5086134;28;20041;-70
2022/03/04 09:36:12;;;;;;;63.13;28.75;;;1.40;99.90;;;;;;5087314;28;20056;-70
2022/03/04 09:38:38;;;;;;;66.25;28.58;;;1.40;99.90;;;;;;5069629;28;20107;-71
2022/03/04 09:41:05;;;;;;;65.18;28.85;;;1.50;99.90;;;;;;5099704;28;20044;-70
2022/03/04 09:43:31;;;;;;;64.40;28.65;;;1.40;99.90;;;;;;5100340;28;20116;-71
2022/03/04 09:45:56;;;;;;;65.47;29.65;;;1.40;99.90;;;;;;5066119;28;20047;-71
2022/03/04 09:48:23;;;;;;;68.65;30.33;;;1.40;99.90;;;;;;5064737;28;20068;-70
2022/03/04 09:50:49;;;;;;;66.40;30.05;;;1.50;99.90;;;;;;5099962;28;20040;-70
2022/03/04 09:53:15;;;;;;;65.68;29.13;;;1.50;99.90;;;;;;5066384;28;20105;-70
2022/03/04 09:55:42;;;;;;;69.57;30.63;;;1.50;99.90;;;;;;5066955;28;20122;-71
2022/03/04 09:58:11;;;;;;;65.18;29.45;;;1.60;99.90;;;;;;5065596;28;20063;-74
2022/03/04 10:00:38;;;;;;;67.80;28.30;;;1.80;99.90;;;;;;5049859;28;20043;-71
2022/03/04 10:03:05;;;;;;;67.20;29.08;;;2.00;99.90;;;;;;5100264;28;20045;-71
2022/03/04 10:05:31;;;;;;;61.13;27.88;;;2.10;99.90;;;;;;5066492;28;20497;-71
2022/03/04 10:07:56;;;;;;;60.03;26.88;;;2.20;99.90;;;;;;5067581;28;20045;-69
2022/03/04 10:10:22;;;;;;;61.17;27.33;;;2.30;99.90;;;;;;5068494;28;20067;-70
2022/03/04 10:12:49;;;;;;;57.35;27.27;;;2.60;99.90;;;;;;5102183;28;20375;-71
2022/03/04 10:15:15;;;;;;;54.42;26.38;;;2.90;99.90;;;;;;5073823;28;20036;-70
2022/03/04 10:17:41;;;;;;;57.60;26.20;;;3.00;99.90;;;;;;5076991;28;20047;-70
2022/03/04 10:20:14;;;;;;;55.97;26.45;;;3.10;99.90;;;;;;5102388;28;20040;-69
2022/03/04 10:22:42;;;;;;;54.45;26.20;;;3.20;99.90;;;;;;5067972;28;20096;-71
2022/03/04 10:25:16;;;;;;;56.90;26.23;;;3.30;99.90;;;;;;5077512;28;20036;-71
2022/03/04 10:27:42;;;;;;;56.20;26.50;;;3.50;99.90;;;;;;5088332;28;20048;-70
2022/03/04 10:30:08;;;;;;;51.35;25.88;;;3.70;99.90;;;;;;5072514;28;20087;-70
2022/03/04 10:32:33;;;;;;;49.75;25.88;;;3.90;99.90;;;;;;5086219;28;20060;-71
2022/03/04 10:35:02;;;;;;;54.28;25.35;;;3.90;99.90;;;;;;5071841;28;20071;-70
2022/03/04 10:37:51;;;;;;;50.20;25.65;;;4.10;99.90;;;;;;5077078;28;20024;-70
2022/03/04 10:40:25;;;;;;;44.50;22.98;;;4.30;99.90;;;;;;5037532;28;20046;-72
2022/03/04 10:42:58;;;;;;;46.80;24.13;;;4.50;99.90;;;;;;5070673;28;20029;-70
2022/03/04 10:45:31;;;;;;;47.47;23.55;;;4.60;99.90;;;;;;5070507;28;20051;-70
2022/03/04 10:48:07;;;;;;;46.15;23.40;;;4.70;99.90;;;;;;5054352;28;20456;-70
2022/03/04 10:50:39;;;;;;;47.88;24.40;;;4.80;99.90;;;;;;5056448;28;20059;-69
2022/03/04 10:53:31;;;;;;;43.42;23.58;;;5.00;99.90;;;;;;5075639;28;20045;-70
2022/03/04 10:55:59;;;;;;;42.63;22.50;;;5.20;99.90;;;;;;5107129;28;20070;-70
2022/03/04 10:58:28;;;;;;;39.90;22.23;;;5.30;99.90;;;;;;5109194;28;20037;-71
2022/03/04 11:00:55;;;;;;;39.90;21.83;;;5.50;99.90;;;;;;5066150;28;20069;-70
2022/03/04 11:03:26;;;;;;;39.65;22.27;;;5.60;99.90;;;;;;5035972;28;20034;-70
2022/03/04 11:05:54;;;;;;;36.20;21.48;;;5.80;99.90;;;;;;5036682;28;20057;-70
2022/03/04 11:08:23;;;;;;;42.38;21.48;;;5.90;99.90;;;;;;5036968;28;20180;-69
2022/03/04 11:10:50;;;;;;;39.08;21.58;;;6.10;99.90;;;;;;5042265;28;20052;-70
2022/03/04 11:13:16;;;;;;;40.25;22.30;;;6.20;99.90;;;;;;5057625;28;20052;-70
2022/03/04 11:15:47;;;;;;;37.28;19.75;;;6.30;99.90;;;;;;5056745;28;20079;-70
2022/03/04 11:18:15;;;;;;;34.15;18.65;;;6.50;99.90;;;;;;5056709;28;20045;-69
2022/03/04 11:20:46;;;;;;;28.95;16.73;;;6.60;99.90;;;;;;5057943;28;20071;-69
2022/03/04 11:23:26;;;;;;;30.63;17.70;;;6.80;99.90;;;;;;5059716;28;20044;-69
2022/03/04 11:25:59;;;;;;;30.75;17.65;;;6.80;99.90;;;;;;5041177;28;20049;-70
2022/03/04 11:28:39;;;;;;;28.92;17.88;;;6.90;99.90;;;;;;5042672;28;20029;-70
2022/03/04 11:31:10;;;;;;;28.90;16.08;;;7.00;99.90;;;;;;5058042;28;20045;-71
2022/03/04 11:33:51;;;;;;;27.70;15.50;;;7.00;99.90;;;;;;5075250;28;20028;-70
2022/03/04 11:36:22;;;;;;;26.63;15.40;;;7.20;99.90;;;;;;5074203;28;20052;-73
2022/03/04 11:38:48;;;;;;;25.92;14.88;;;7.30;99.90;;;;;;5075295;28;20048;-70
2022/03/04 11:41:24;;;;;;;25.33;15.45;;;7.30;99.90;;;;;;5075106;28;20036;-70
2022/03/04 11:43:52;;;;;;;24.08;14.95;;;7.50;99.90;;;;;;5084436;28;20096;-71
2022/03/04 11:46:24;;;;;;;25.40;14.82;;;7.60;99.90;;;;;;5092841;28;20041;-71
2022/03/04 11:49:24;;;;;;;24.75;14.00;;;7.80;99.90;;;;;;5076525;28;20041;-70
2022/03/04 11:52:11;;;;;;;;;;;7.90;99.90;;;;;;5075323;28;20037;-71
2022/03/04 11:54:49;;;;;;;26.17;15.07;;;8.10;99.90;;;;;;5091709;28;19905;-70
2022/03/04 11:57:34;;;;;;;27.33;14.07;;;8.20;99.90;;;;;;5075890;28;20025;-70
2022/03/04 12:00:16;;;;;;;22.52;14.23;;;8.30;99.90;;;;;;5075499;28;20112;-70
2022/03/04 12:02:42;;;;;;;21.65;13.25;;;8.30;99.90;;;;;;5075482;28;20147;-71
2022/03/04 12:05:19;;;;;;;23.88;14.60;;;8.30;99.90;;;;;;5076036;28;20028;-70
2022/03/04 12:07:56;;;;;;;23.70;14.27;;;8.50;99.90;;;;;;5075596;28;20111;-71
2022/03/04 12:10:43;;;;;;;23.83;13.98;;;8.80;99.90;;;;;;5075200;28;20053;-70
2022/03/04 12:13:14;;;;;;;24.35;14.32;;;9.00;98.40;;;;;;5074105;28;20075;-72
2022/03/04 12:15:42;;;;;;;23.27;13.38;;;9.10;99.90;;;;;;5073425;28;20041;-70
2022/03/04 12:18:30;;;;;;;23.52;13.18;;;9.20;99.90;;;;;;5074687;28;20044;-70
2022/03/04 12:20:56;;;;;;;23.83;12.82;;;9.30;95.40;;;;;;5062808;28;20025;-71
2022/03/04 12:23:46;;;;;;;21.17;12.82;;;9.40;99.30;;;;;;5075614;28;20393;-74
2022/03/04 12:26:22;;;;;;;23.40;12.30;;;9.50;98.20;;;;;;5052959;28;20036;-71
2022/03/04 12:28:59;;;;;;;22.33;12.57;;;9.50;98.00;;;;;;5079434;28;20029;-70
2022/03/04 12:31:25;;;;;;;22.65;12.50;;;9.60;97.20;;;;;;5076305;28;20087;-71
2022/03/04 12:33:54;;;;;;;21.42;12.48;;;9.60;96.20;;;;;;5061358;28;20033;-73
2022/03/04 12:36:21;;;;;;;20.42;11.95;;;9.70;97.20;;;;;;5106250;28;20044;-71
2022/03/04 12:38:59;;;;;;;22.10;12.13;;;9.80;95.80;;;;;;5074834;28;20036;-70